Terminal Aerodrome Forecast
Issued by NWS

Home | Current Version | Previous Version | Text Only | Print | Product List | Glossary On
Versions: 1 2 3 4 5 6 7 8 9 10 11 12
532
FTUS42 KTAE 111120
TAFVLD
TAF
KVLD 111120Z 1112/1212 00000KT P6SM SKC
     FM111500 21008KT P6SM SKC
     FM120000 20003KT P6SM SCT030
     FM120900 00000KT 3SM BR BKN010=

USA.gov is the U.S. government's official web portal to all federal, state and local government web resources and services.